createdAt,value
2022-08-22T00:02:37.465Z,84.27
2022-08-22T00:02:57.375Z,75.76
2022-08-22T00:02:58.022Z,81.54
2022-08-22T00:05:41.911Z,84.88
2022-08-22T00:08:30.319Z,85.52
2022-08-22T00:11:17.996Z,85.40
2022-08-22T00:14:17.369Z,85.23
2022-08-22T00:17:23.747Z,85.66
2022-08-22T00:20:15.647Z,85.03
2022-08-22T00:22:53.760Z,84.98
2022-08-22T00:25:25.715Z,84.92
2022-08-22T00:28:02.825Z,84.96
2022-08-22T00:30:43.239Z,84.92
2022-08-22T00:33:27.605Z,84.69
2022-08-22T00:36:07.310Z,84.82
2022-08-22T00:38:47.752Z,84.41
2022-08-22T00:41:30.207Z,84.88
2022-08-22T00:44:23.082Z,84.83
2022-08-22T00:47:09.785Z,85.01
2022-08-22T00:49:40.361Z,84.77
2022-08-22T00:52:32.564Z,84.65
2022-08-22T00:55:36.381Z,84.95
2022-08-22T00:58:15.518Z,84.95
2022-08-22T01:00:55.226Z,85.43
2022-08-22T01:03:30.923Z,85.46
2022-08-22T01:06:24.045Z,85.57
2022-08-22T01:09:02.759Z,85.47
2022-08-22T01:12:11.825Z,85.85
2022-08-22T01:15:02.683Z,85.87
2022-08-22T01:17:47.903Z,86.17
2022-08-22T01:20:36.801Z,86.38
2022-08-22T01:23:40.668Z,86.11
2022-08-22T01:26:26.179Z,86.61
2022-08-22T01:29:39.673Z,86.67
2022-08-22T01:32:26.432Z,86.55
2022-08-22T01:35:17.891Z,86.76
2022-08-22T01:38:06.575Z,87.16
2022-08-22T01:40:54.766Z,87.30
2022-08-22T01:43:51.352Z,87.25
2022-08-22T01:46:40.804Z,87.68
2022-08-22T01:49:35.447Z,87.90
2022-08-22T01:52:13.170Z,87.71
2022-08-22T01:55:03.041Z,88.04
2022-08-22T01:57:29.664Z,88.35
2022-08-22T02:00:01.762Z,88.94
2022-08-22T02:03:17.046Z,89.07
2022-08-22T02:05:55.077Z,89.19
2022-08-22T02:08:33.686Z,89.05
2022-08-22T02:11:08.027Z,89.27
2022-08-22T02:13:57.051Z,89.43
2022-08-22T02:16:37.557Z,89.03
2022-08-22T02:19:10.041Z,89.07
2022-08-22T02:21:55.791Z,89.58
2022-08-22T02:24:44.923Z,89.90
2022-08-22T02:27:44.015Z,90.22
2022-08-22T02:30:25.466Z,90.72
2022-08-22T02:33:08.883Z,90.85
2022-08-22T02:35:43.205Z,91.22
2022-08-22T02:38:25.417Z,91.62
2022-08-22T02:41:06.488Z,91.58
2022-08-22T02:43:49.670Z,91.83
2022-08-22T02:46:27.416Z,92.17
2022-08-22T02:49:09.181Z,92.52
2022-08-22T02:51:53.614Z,92.53
2022-08-22T02:54:36.306Z,92.76
2022-08-22T02:57:14.201Z,92.99
2022-08-22T03:00:33.333Z,93.39
2022-08-22T03:03:14.183Z,93.51
2022-08-22T03:05:49.320Z,93.62
2022-08-22T03:08:32.621Z,93.91
2022-08-22T03:11:11.044Z,93.94
2022-08-22T03:13:54.356Z,93.92
2022-08-22T03:16:36.213Z,94.08
2022-08-22T03:19:21.106Z,94.17
2022-08-22T03:22:14.162Z,94.28
2022-08-22T03:24:55.533Z,94.34
2022-08-22T03:27:36.333Z,94.01
2022-08-22T03:30:23.338Z,93.87
2022-08-22T03:32:59.184Z,94.03
2022-08-22T03:35:51.008Z,94.28
2022-08-22T03:38:27.142Z,94.05
2022-08-22T03:41:12.434Z,94.13
2022-08-22T03:44:24.351Z,94.26
2022-08-22T03:47:17.288Z,94.68
2022-08-22T03:49:43.782Z,94.80
2022-08-22T03:52:31.327Z,94.73
2022-08-22T03:55:14.096Z,95.21
2022-08-22T03:58:28.574Z,95.40
2022-08-22T04:01:13.923Z,95.80
2022-08-22T04:03:59.130Z,96.12
2022-08-22T04:06:44.604Z,96.40
2022-08-22T04:09:47.589Z,96.71
2022-08-22T04:12:39.217Z,97.02
2022-08-22T04:15:06.056Z,97.14
2022-08-22T04:17:51.547Z,97.26
2022-08-22T04:20:37.785Z,97.38
2022-08-22T04:23:27.974Z,97.31
2022-08-22T04:26:10.694Z,97.07
2022-08-22T04:28:49.211Z,96.97
2022-08-22T04:31:29.841Z,96.69
2022-08-22T04:34:02.728Z,96.70
2022-08-22T04:36:50.666Z,96.71
2022-08-22T04:39:34.333Z,96.81
2022-08-22T04:42:33.604Z,96.77
2022-08-22T04:45:13.916Z,96.79
2022-08-22T04:47:53.987Z,96.92
2022-08-22T04:50:31.012Z,96.87
2022-08-22T04:53:32.791Z,96.75
2022-08-22T04:56:22.283Z,96.94
2022-08-22T04:59:03.342Z,96.73
2022-08-22T05:02:00.376Z,97.09
2022-08-22T05:04:31.916Z,97.09
2022-08-22T05:07:07.691Z,97.23
2022-08-22T05:09:38.965Z,97.20
2022-08-22T05:12:09.721Z,97.47
2022-08-22T05:14:51.302Z,97.44
2022-08-22T05:17:25.486Z,98.13
2022-08-22T05:19:57.543Z,97.89
2022-08-22T05:22:32.945Z,98.09
2022-08-22T05:25:11.417Z,98.11
2022-08-22T05:27:49.800Z,98.35
2022-08-22T05:30:24.565Z,98.08
2022-08-22T05:33:17.010Z,98.31
2022-08-22T05:35:50.836Z,98.50
2022-08-22T05:38:23.853Z,98.33
2022-08-22T05:40:59.402Z,98.63
2022-08-22T05:43:26.763Z,98.50
2022-08-22T05:45:57.139Z,98.38
2022-08-22T05:48:37.518Z,98.38
2022-08-22T05:51:12.873Z,98.57
2022-08-22T05:53:44.543Z,98.48
2022-08-22T05:56:18.450Z,98.32
2022-08-22T05:58:51.598Z,98.51
2022-08-22T06:01:24.869Z,98.29
2022-08-22T06:04:06.973Z,98.35
2022-08-22T06:06:52.242Z,98.42
2022-08-22T06:09:35.552Z,98.52
2022-08-22T06:12:22.492Z,98.88
2022-08-22T06:15:15.637Z,98.24
2022-08-22T06:18:06.118Z,98.10
2022-08-22T06:20:39.333Z,98.36
2022-08-22T06:23:08.167Z,97.76
2022-08-22T06:25:39.222Z,98.24
2022-08-22T06:28:12.754Z,97.54
2022-08-22T06:30:40.231Z,96.93
2022-08-22T06:33:12.658Z,96.45
2022-08-22T06:36:07.874Z,95.93
2022-08-22T06:38:53.151Z,95.05
2022-08-22T06:41:22.487Z,94.20
2022-08-22T06:43:52.730Z,93.47
2022-08-22T06:46:21.322Z,93.25
2022-08-22T06:48:49.110Z,92.56
2022-08-22T06:51:18.618Z,92.43
2022-08-22T06:53:53.740Z,91.89
2022-08-22T06:56:24.483Z,91.52
2022-08-22T06:58:56.611Z,90.97
2022-08-22T07:01:29.061Z,90.27
2022-08-22T07:04:05.396Z,89.45
2022-08-22T07:06:36.617Z,88.70
2022-08-22T07:09:06.852Z,88.52
2022-08-22T07:11:43.208Z,87.41
2022-08-22T07:14:14.413Z,86.66
2022-08-22T07:16:43.920Z,86.17
2022-08-22T07:19:24.013Z,85.64
2022-08-22T07:21:50.829Z,85.00
2022-08-22T07:24:22.631Z,84.25
2022-08-22T07:26:58.847Z,83.85
2022-08-22T07:29:38.901Z,83.47
2022-08-22T07:32:16.130Z,83.19
2022-08-22T07:35:04.115Z,82.97
2022-08-22T07:37:51.914Z,82.52
2022-08-22T07:40:43.081Z,82.29
2022-08-22T07:43:28.859Z,82.01
2022-08-22T07:46:01.431Z,81.16
2022-08-22T07:49:05.871Z,80.90
2022-08-22T07:51:37.007Z,80.38
2022-08-22T07:54:08.133Z,79.20
2022-08-22T07:56:42.373Z,78.63
2022-08-22T07:59:16.318Z,78.16
2022-08-22T08:01:51.127Z,77.96
2022-08-22T08:04:23.236Z,77.44
2022-08-22T08:06:53.309Z,76.85
2022-08-22T08:09:21.141Z,76.27
2022-08-22T08:11:51.738Z,75.61
2022-08-22T08:14:21.836Z,74.64
2022-08-22T08:17:02.281Z,74.57
2022-08-22T08:19:35.700Z,73.71
2022-08-22T08:22:04.724Z,73.39
2022-08-22T08:24:39.935Z,72.07
2022-08-22T08:27:33.321Z,71.75
2022-08-22T08:30:04.875Z,71.34
2022-08-22T08:32:35.232Z,70.65
2022-08-22T08:35:29.867Z,70.74
2022-08-22T08:38:18.300Z,70.96
2022-08-22T08:41:11.986Z,69.95
2022-08-22T08:44:03.205Z,68.93
2022-08-22T08:46:35.477Z,67.88
2022-08-22T08:49:24.142Z,67.90
2022-08-22T08:52:28.489Z,67.65
2022-08-22T08:55:16.027Z,65.45
2022-08-22T08:58:06.804Z,65.08
2022-08-22T09:00:45.931Z,65.37
2022-08-22T09:03:46.255Z,64.28
2022-08-22T09:06:18.443Z,63.73
2022-08-22T09:09:03.849Z,63.68
2022-08-22T09:11:50.763Z,62.98
2022-08-22T09:14:48.352Z,61.52
2022-08-22T09:18:03.574Z,60.58
2022-08-22T09:21:03.267Z,58.37
2022-08-22T09:24:05.268Z,59.25
2022-08-22T09:26:48.102Z,56.00
2022-08-22T09:29:33.607Z,57.10
2022-08-22T09:32:19.832Z,56.44
2022-08-22T09:35:13.588Z,56.20
2022-08-22T09:38:00.463Z,56.12
2022-08-22T09:40:32.244Z,55.61
2022-08-22T09:43:21.356Z,54.82
2022-08-22T09:46:10.792Z,54.54
2022-08-22T09:48:48.710Z,51.91
2022-08-22T09:51:31.602Z,51.84
2022-08-22T09:54:14.658Z,51.50
2022-08-22T09:57:00.707Z,51.25
2022-08-22T09:59:48.619Z,50.94
2022-08-22T10:02:43.483Z,50.79
2022-08-22T10:05:35.133Z,50.13
2022-08-22T10:08:14.948Z,50.39
2022-08-22T10:11:06.660Z,49.70
2022-08-22T10:13:38.434Z,48.47
2022-08-22T10:16:21.344Z,47.37
2022-08-22T10:19:00.562Z,47.15
2022-08-22T10:21:39.390Z,47.43
2022-08-22T10:24:25.596Z,46.51
2022-08-22T10:27:09.028Z,45.10
2022-08-22T10:29:51.506Z,44.88
2022-08-22T10:32:36.074Z,45.64
2022-08-22T10:35:27.760Z,45.30
2022-08-22T10:38:03.065Z,44.93
2022-08-22T10:40:37.946Z,43.33
2022-08-22T10:43:31.190Z,43.18
2022-08-22T10:46:06.665Z,44.42
2022-08-22T10:48:56.992Z,44.24
2022-08-22T10:51:38.986Z,44.55
2022-08-22T10:54:20.000Z,42.77
2022-08-22T10:57:08.367Z,42.92
2022-08-22T11:00:01.759Z,43.63
2022-08-22T11:02:39.157Z,43.30
2022-08-22T11:05:18.063Z,43.24
2022-08-22T11:08:23.013Z,42.95
2022-08-22T11:11:05.584Z,42.58
2022-08-22T11:13:56.277Z,42.94
2022-08-22T11:16:28.601Z,41.17
2022-08-22T11:19:32.923Z,42.78
2022-08-22T11:22:25.617Z,43.08
2022-08-22T11:25:35.732Z,42.35
2022-08-22T11:28:22.196Z,42.57
2022-08-22T11:30:57.833Z,42.99
2022-08-22T11:33:47.473Z,41.81
2022-08-22T11:36:30.926Z,42.40
2022-08-22T11:39:06.521Z,41.91
2022-08-22T11:41:52.328Z,40.58
2022-08-22T11:44:32.137Z,41.56
2022-08-22T11:47:07.852Z,41.93
2022-08-22T11:49:56.730Z,39.82
2022-08-22T11:52:36.625Z,40.89
2022-08-22T11:55:38.545Z,41.14
2022-08-22T11:58:14.103Z,41.32
2022-08-22T12:00:55.390Z,40.69
2022-08-22T12:04:03.413Z,40.75
2022-08-22T12:06:45.743Z,40.56
2022-08-22T12:09:17.943Z,38.63
2022-08-22T12:11:45.255Z,38.48
2022-08-22T12:14:26.887Z,39.08
2022-08-22T12:17:12.894Z,39.49
2022-08-22T12:20:27.577Z,38.82
2022-08-22T12:23:30.054Z,40.02
2022-08-22T12:26:29.148Z,39.32
2022-08-22T12:29:28.561Z,40.13
2022-08-22T12:32:27.427Z,40.14
2022-08-22T12:35:13.730Z,40.39
2022-08-22T12:37:53.021Z,41.18
2022-08-22T12:40:43.647Z,41.10
2022-08-22T12:43:22.273Z,40.57
2022-08-22T12:46:13.033Z,40.88
2022-08-22T12:48:55.119Z,38.38
2022-08-22T12:51:30.572Z,37.55
2022-08-22T12:54:29.278Z,39.36
2022-08-22T12:57:23.944Z,38.81
2022-08-22T12:59:58.199Z,38.98
2022-08-22T13:02:30.427Z,39.01
2022-08-22T13:04:57.057Z,38.14
2022-08-22T13:07:29.111Z,37.70
2022-08-22T13:10:40.233Z,38.87
2022-08-22T13:13:12.081Z,37.60
2022-08-22T13:15:56.526Z,37.95
2022-08-22T13:18:31.130Z,36.62
2022-08-22T13:21:02.617Z,38.31
2022-08-22T13:23:39.923Z,38.41
2022-08-22T13:26:31.628Z,37.98
2022-08-22T13:29:24.638Z,37.26
2022-08-22T13:32:01.577Z,37.16
2022-08-22T13:34:43.637Z,36.54
2022-08-22T13:37:24.588Z,37.06
2022-08-22T13:39:58.522Z,37.06
2022-08-22T13:42:30.864Z,35.88
2022-08-22T13:45:02.970Z,36.58
2022-08-22T13:47:34.719Z,35.24
2022-08-22T13:50:14.034Z,36.12
2022-08-22T13:52:52.597Z,35.85
2022-08-22T13:56:05.019Z,36.32
2022-08-22T13:58:42.572Z,36.47
2022-08-22T14:01:20.009Z,36.58
2022-08-22T14:04:17.783Z,36.77
2022-08-22T14:07:04.650Z,36.66
2022-08-22T14:09:36.444Z,36.46
2022-08-22T14:12:15.488Z,35.92
2022-08-22T14:14:46.357Z,35.95
2022-08-22T14:17:19.854Z,34.83
2022-08-22T14:19:59.344Z,34.64
2022-08-22T14:22:34.918Z,34.75
2022-08-22T14:25:21.564Z,35.43
2022-08-22T14:28:06.115Z,34.33
2022-08-22T14:30:54.269Z,34.84
2022-08-22T14:33:28.379Z,35.83
2022-08-22T14:36:02.897Z,36.30
2022-08-22T14:38:32.096Z,35.50
2022-08-22T14:41:06.857Z,35.38
2022-08-22T14:43:48.293Z,35.32
2022-08-22T14:46:23.518Z,35.88
2022-08-22T14:48:56.214Z,35.85
2022-08-22T14:51:25.455Z,35.46
2022-08-22T14:53:52.630Z,35.57
2022-08-22T14:56:23.278Z,36.51
2022-08-22T14:58:50.685Z,36.86
2022-08-22T15:01:21.802Z,36.28
2022-08-22T15:03:53.848Z,35.61
2022-08-22T15:06:36.020Z,36.59
2022-08-22T15:09:41.985Z,36.75
2022-08-22T15:12:32.131Z,36.01
2022-08-22T15:15:01.857Z,36.76
2022-08-22T15:17:38.492Z,36.96
2022-08-22T15:20:22.735Z,36.93
2022-08-22T15:23:01.605Z,35.98
2022-08-22T15:25:41.139Z,36.74
2022-08-22T15:28:20.572Z,36.29
2022-08-22T15:31:03.483Z,37.09
2022-08-22T15:33:39.064Z,37.90
2022-08-22T15:36:21.205Z,35.81
2022-08-22T15:38:50.709Z,35.50
2022-08-22T15:41:36.702Z,36.16
2022-08-22T15:44:30.767Z,35.11
2022-08-22T15:47:03.119Z,34.91
2022-08-22T15:49:34.696Z,34.03
2022-08-22T15:52:01.141Z,31.00
2022-08-22T15:54:44.247Z,31.15
2022-08-22T15:57:40.317Z,30.06
2022-08-22T16:00:30.812Z,28.46
2022-08-22T16:03:01.408Z,27.27
2022-08-22T16:05:44.492Z,26.66
2022-08-22T16:08:21.745Z,26.05
2022-08-22T16:11:06.724Z,24.81
2022-08-22T16:13:38.185Z,24.18
2022-08-22T16:16:34.005Z,23.36
2022-08-22T16:19:03.205Z,21.29
2022-08-22T16:21:29.642Z,20.91
2022-08-22T16:23:56.704Z,20.69
2022-08-22T16:26:24.279Z,20.99
2022-08-22T16:28:59.446Z,20.43
2022-08-22T16:32:01.327Z,20.64
2022-08-22T16:34:37.073Z,21.09
2022-08-22T16:37:03.535Z,20.39
2022-08-22T16:39:46.121Z,20.92
2022-08-22T16:42:12.646Z,19.64
2022-08-22T16:44:54.773Z,20.35
2022-08-22T16:48:05.298Z,20.07
2022-08-22T16:50:38.180Z,20.55
2022-08-22T16:53:10.406Z,20.52
2022-08-22T16:55:55.572Z,20.08
2022-08-22T16:58:57.059Z,21.78
2022-08-22T17:01:47.852Z,21.33
2022-08-22T17:04:32.478Z,21.59
2022-08-22T17:07:42.990Z,22.05
2022-08-22T17:10:36.087Z,23.22
2022-08-22T17:13:22.309Z,23.56
2022-08-22T17:16:31.553Z,23.93
2022-08-22T17:19:37.316Z,24.30
2022-08-22T17:22:18.148Z,25.11
2022-08-22T17:24:50.743Z,25.85
2022-08-22T17:27:37.302Z,26.88
2022-08-22T17:30:07.256Z,26.99
2022-08-22T17:33:03.027Z,27.87
2022-08-22T17:36:26.856Z,28.67
2022-08-22T17:39:29.138Z,29.47
2022-08-22T17:42:35.482Z,30.55
2022-08-22T17:45:28.120Z,31.65
2022-08-22T17:48:12.082Z,31.94
2022-08-22T17:50:46.586Z,32.70
2022-08-22T17:53:31.120Z,33.39
2022-08-22T17:56:16.324Z,34.01
2022-08-22T17:58:54.209Z,34.50
2022-08-22T18:01:43.885Z,34.91
2022-08-22T18:04:23.082Z,35.42
2022-08-22T18:06:58.370Z,35.71
2022-08-22T18:09:39.020Z,36.31
2022-08-22T18:12:17.281Z,36.82
2022-08-22T18:15:02.912Z,37.25
2022-08-22T18:17:41.272Z,38.17
2022-08-22T18:20:17.128Z,38.52
2022-08-22T18:22:50.813Z,39.23
2022-08-22T18:25:17.243Z,39.74
2022-08-22T18:27:55.936Z,39.84
2022-08-22T18:30:28.344Z,40.63
2022-08-22T18:32:59.786Z,40.93
2022-08-22T18:35:40.227Z,41.29
2022-08-22T18:38:32.075Z,41.50
2022-08-22T18:41:07.391Z,41.94
2022-08-22T18:43:40.740Z,42.37
2022-08-22T18:46:38.123Z,42.48
2022-08-22T18:49:20.251Z,42.91
2022-08-22T18:52:05.499Z,43.06
2022-08-22T18:55:02.892Z,43.56
2022-08-22T18:58:14.482Z,43.80
2022-08-22T19:01:00.455Z,43.83
2022-08-22T19:03:51.929Z,44.35
2022-08-22T19:06:43.438Z,44.44
2022-08-22T19:09:41.212Z,44.73
2022-08-22T19:12:35.844Z,45.06
2022-08-22T19:15:33.470Z,45.49
2022-08-22T19:18:23.045Z,45.55
2022-08-22T19:21:46.331Z,46.03
2022-08-22T19:24:42.789Z,46.09
2022-08-22T19:27:18.479Z,46.27
2022-08-22T19:29:45.055Z,46.39
2022-08-22T19:32:46.741Z,47.08
2022-08-22T19:35:24.648Z,47.16
2022-08-22T19:37:58.366Z,47.26
2022-08-22T19:40:58.309Z,47.65
2022-08-22T19:43:40.483Z,47.81
2022-08-22T19:46:11.922Z,48.09
2022-08-22T19:48:47.874Z,48.72
2022-08-22T19:51:20.433Z,48.78
2022-08-22T19:53:47.209Z,49.15
2022-08-22T19:56:52.638Z,49.41
2022-08-22T20:00:00.236Z,49.57
2022-08-22T20:02:37.573Z,49.78
2022-08-22T20:05:22.151Z,49.83
2022-08-22T20:08:04.582Z,50.16
2022-08-22T20:11:03.540Z,50.41
2022-08-22T20:13:33.314Z,50.83
2022-08-22T20:16:23.686Z,51.09
2022-08-22T20:19:15.480Z,51.16
2022-08-22T20:21:55.104Z,51.29
2022-08-22T20:24:43.409Z,51.53
2022-08-22T20:27:29.146Z,51.93
2022-08-22T20:30:07.797Z,52.15
2022-08-22T20:32:58.061Z,52.45
2022-08-22T20:35:52.551Z,52.71
2022-08-22T20:38:23.572Z,52.88
2022-08-22T20:40:58.000Z,53.20
2022-08-22T20:43:51.543Z,53.44
2022-08-22T20:46:37.841Z,53.95
2022-08-22T20:49:17.899Z,54.08
2022-08-22T20:51:55.249Z,54.40
2022-08-22T20:54:24.794Z,54.63
2022-08-22T20:56:55.867Z,55.10
2022-08-22T20:59:31.584Z,55.18
2022-08-22T21:02:45.017Z,55.30
2022-08-22T21:05:11.554Z,55.80
2022-08-22T21:07:39.324Z,55.75
2022-08-22T21:10:34.100Z,56.08
2022-08-22T21:13:10.816Z,55.89
2022-08-22T21:15:49.441Z,56.54
2022-08-22T21:18:27.591Z,56.79
2022-08-22T21:20:55.140Z,56.88
2022-08-22T21:23:21.798Z,57.20
2022-08-22T21:26:00.951Z,57.29
2022-08-22T21:28:35.844Z,57.50
2022-08-22T21:31:31.321Z,57.93
2022-08-22T21:33:58.522Z,57.90
2022-08-22T21:36:29.058Z,58.43
2022-08-22T21:39:03.849Z,58.50
2022-08-22T21:41:47.865Z,58.66
2022-08-22T21:44:28.511Z,59.34
2022-08-22T21:46:55.696Z,59.10
2022-08-22T21:49:29.441Z,59.23
2022-08-22T21:51:56.393Z,59.65
2022-08-22T21:54:26.064Z,59.83
2022-08-22T21:56:55.784Z,59.95
2022-08-22T21:59:51.593Z,60.09
2022-08-22T22:02:37.659Z,60.29
2022-08-22T22:05:17.822Z,60.87
2022-08-22T22:07:46.984Z,60.78
2022-08-22T22:10:16.703Z,61.00
2022-08-22T22:12:45.214Z,61.23
2022-08-22T22:15:19.100Z,61.43
2022-08-22T22:17:45.810Z,61.47
2022-08-22T22:20:16.277Z,61.60
2022-08-22T22:22:46.468Z,61.84
2022-08-22T22:25:40.570Z,62.03
2022-08-22T22:28:09.308Z,62.18
2022-08-22T22:30:36.452Z,62.17
2022-08-22T22:33:03.149Z,62.61
2022-08-22T22:35:30.376Z,62.77
2022-08-22T22:37:56.986Z,62.97
2022-08-22T22:40:24.355Z,62.84
2022-08-22T22:42:51.118Z,63.25
2022-08-22T22:45:17.631Z,63.24
2022-08-22T22:47:44.390Z,63.40
2022-08-22T22:50:10.962Z,63.63
2022-08-22T22:52:38.521Z,63.60
2022-08-22T22:55:09.175Z,63.97
2022-08-22T22:57:41.387Z,63.93
2022-08-22T23:00:11.804Z,64.18
2022-08-22T23:02:38.933Z,64.26
2022-08-22T23:05:07.250Z,64.61
2022-08-22T23:07:34.166Z,64.56
2022-08-22T23:10:01.517Z,64.77
2022-08-22T23:12:28.886Z,64.91
2022-08-22T23:14:55.588Z,64.97
2022-08-22T23:17:22.255Z,65.15
2022-08-22T23:19:51.064Z,65.27
2022-08-22T23:22:17.990Z,65.60
2022-08-22T23:24:44.587Z,65.63
2022-08-22T23:27:11.582Z,65.82
2022-08-22T23:29:43.516Z,66.11
2022-08-22T23:32:11.543Z,66.50
2022-08-22T23:34:46.044Z,66.62
2022-08-22T23:37:18.641Z,66.79
2022-08-22T23:39:45.324Z,67.30
2022-08-22T23:42:13.044Z,67.39
2022-08-22T23:44:41.459Z,67.56
2022-08-22T23:47:10.208Z,68.01
2022-08-22T23:49:38.126Z,68.28
2022-08-22T23:52:06.464Z,68.48
2022-08-22T23:54:33.872Z,68.66
2022-08-22T23:57:02.719Z,69.13
2022-08-22T23:59:40.165Z,69.25
